Preston, ID

12:25 AM MDT on August 29, 2014 (GMT -0600)
Fairview SW | Change Station
CLOSE
Current Station
Personal Weather Station
Location: Preston, ID
Elevation: 4478 ft
Nearby Weather Stations

Elev 4478 ft 42.01 °N, 111.92 °W | Updated 4 minutes ago

Clear
Clear
56.7 °F
Feels Like 56.7 °F
N
0.0
Wind Variable Wind from ESE
Gusts 0.0 mph

Today
High -- | Low -- °F
--% Chance of Precip.
Yesterday
High -- | Low -- °F
Precip. -- in
6:49 AM 8:05 PM
Waxing Crescent, 12% visible
Pressure 29.98 in
Visibility 10.0 miles
Clouds Clear
Dew Point 51 °F
Humidity 80%
Rainfall 0.00 in
Snow Depth Not available.
UV 0 out of 12
Pollen 8.60 out of 12
Air Quality Not available.
Flu Activity Not available.
METAR KLGU 290551Z AUTO 06003KT 10SM CLR 14/12 A3010 RMK AO2 SLP150 T01390117 10278 20139 58000

More Conditions Fewer Conditions

Pressure 29.98 in
Visibility 10.0 miles
Clouds Clear
Dew Point 51 °F
Humidity 80%
Rainfall 0.00 in
Snow Depth Not available.
UV 0 out of 12
Pollen 8.60 out of 12
Air Quality Not available.
Flu Activity Not available.
METAR KLGU 290551Z AUTO 06003KT 10SM CLR 14/12 A3010 RMK AO2 SLP150 T01390117 10278 20139 58000

More Conditions Fewer Conditions

10-Day Weather Forecast

Almanac

Astronomy

Aug. 29, 2014 Rise Set
Actual Time 6:49 AM MDT 8:05 PM MDT
Civil Twilight 6:20 AM MDT 8:34 PM MDT
Nautical Twilight 5:45 AM MDT 9:09 PM MDT
Astronomical Twilight 5:08 AM MDT 9:45 PM MDT
Moon 10:47 AM MDT 10:00 PM MDT
Length of Visible Light 14h 14m
Length of Day
13h 16m
Tomorrow will be 2m 42s shorter.
Waxing Crescent, 12% of the Moon is Illuminated
Today
Waxing Crescent
Sep 2
First Quarter
Sep 8
Full
Sep 15
Last Quarter
Sep 24
New

Today's Extremes

State Highs State Lows

Community

WunderPhotos

Upload Photos

1,748,197 photos uploaded!

Nearby

Snow Depth

Station Depth Elevation
Franklin Basin 1 in 8170 ft
Emigrant Summit 0 in 7390 ft
Wildhorse Divide 0 in 6490 ft
Somsen Ranch 0 in 6800 ft
Sheep Mountain 0 in 6570 ft

Earthquake Activity

City Distance Mag. Time & Date
No recent earthquake activity has been reported nearby.
Minimum magnitude displayed is 2.5.

Coastal Water Temperatures

Place Temperature
No Stations Reporting

Nearby Weather Stations